Time;durP1;ratioP1;P1;durP2;ratioP2;P2;SDS_P1;SDS_P2;PMS_P1;PMS_P2;Temp;Humidity;BMP_temperature;BMP_pressure;BME280_temperature;BME280_humidity;BME280_pressure;Samples;Min_cycle;Max_cycle;Signal;HPM_P1;HPM_P2
2023/07/07 00:02:12;;;;;;;4.33;2.60;;;;;;;23.14;53.57;100468.34;5066915;28;20198;-65
2023/07/07 00:04:37;;;;;;;3.73;2.20;;;;;;;23.12;53.50;100471.63;5066822;28;20719;-65
2023/07/07 00:07:04;;;;;;;3.60;2.33;;;;;;;23.13;53.66;100472.47;5067645;28;20201;-66
2023/07/07 00:09:31;;;;;;;4.37;2.57;;;;;;;23.13;53.66;100467.50;5069718;28;20894;-65
2023/07/07 00:11:57;;;;;;;3.63;2.33;;;;;;;23.13;53.61;100467.50;5068816;28;20417;-65
2023/07/07 00:14:22;;;;;;;4.20;2.40;;;;;;;23.13;53.57;100466.72;5069459;28;20646;-65
2023/07/07 00:16:48;;;;;;;4.80;2.63;;;;;;;23.12;53.78;100465.88;5065124;28;20429;-65
2023/07/07 00:19:13;;;;;;;4.60;2.20;;;;;;;23.12;53.50;100462.16;5086631;28;20186;-65
2023/07/07 00:21:40;;;;;;;4.30;2.63;;;;;;;23.12;53.85;100456.41;5089192;28;20179;-66
2023/07/07 00:24:07;;;;;;;4.07;2.70;;;;;;;23.12;53.96;100456.41;5082604;28;20187;-65
2023/07/07 00:26:32;;;;;;;3.20;2.40;;;;;;;23.11;53.81;100467.09;5069051;28;20397;-65
2023/07/07 00:28:58;;;;;;;4.23;2.80;;;;;;;23.12;53.72;100473.69;5073830;28;20419;-65
2023/07/07 00:31:24;;;;;;;3.90;1.97;;;;;;;23.10;53.62;100468.34;5072883;28;20262;-65
2023/07/07 00:33:49;;;;;;;6.70;3.03;;;;;;;23.11;53.73;100472.88;5069071;28;20163;-65
2023/07/07 00:36:15;;;;;;;4.73;2.10;;;;;;;23.11;53.74;100475.75;5053447;28;20637;-65
2023/07/07 00:38:40;;;;;;;3.70;2.40;;;;;;;23.09;53.66;100469.56;5050987;28;20249;-65
2023/07/07 00:41:06;;;;;;;4.13;2.27;;;;;;;23.09;53.74;100478.19;5068479;28;20164;-65
2023/07/07 00:43:31;;;;;;;4.23;2.50;;;;;;;23.10;53.75;100471.22;5084632;28;20228;-65
2023/07/07 00:45:57;;;;;;;4.77;2.63;;;;;;;23.09;53.63;100466.69;5087425;28;20179;-65
2023/07/07 00:48:44;;;;;;;8.13;2.80;;;;;;;23.09;53.99;100465.88;5067905;28;20182;-65
2023/07/07 00:51:12;;;;;;;5.30;2.37;;;;;;;23.09;53.65;100474.50;5080875;28;20202;-65
2023/07/07 00:53:38;;;;;;;5.50;2.77;;;;;;;23.09;53.65;100478.19;5065191;28;20477;-65
2023/07/07 00:56:05;;;;;;;5.33;2.90;;;;;;;23.08;53.55;100475.75;5086552;28;20420;-65
2023/07/07 00:58:31;;;;;;;3.77;2.23;;;;;;;23.07;53.37;100474.91;5069249;28;20186;-65
2023/07/07 01:01:00;;;;;;;4.90;2.40;;;;;;;23.07;53.76;100480.66;5084888;28;20502;-62
2023/07/07 01:03:33;;;;;;;4.53;2.33;;;;;;;23.07;53.90;100483.56;5055169;28;20257;-62
2023/07/07 01:06:00;;;;;;;4.70;2.80;;;;;;;23.07;53.67;100483.56;5068828;28;20410;-62
2023/07/07 01:08:25;;;;;;;4.03;2.13;;;;;;;23.07;54.13;100489.31;5068875;28;20454;-62
2023/07/07 01:10:50;;;;;;;4.27;2.50;;;;;;;23.07;53.87;100486.44;5052474;28;20550;-63
2023/07/07 01:13:16;;;;;;;3.57;2.43;;;;;;;23.07;53.78;100492.19;5051458;28;20625;-62
2023/07/07 01:15:54;;;;;;;3.10;2.20;;;;;;;23.05;53.98;100483.16;5069913;28;20611;-62
2023/07/07 01:18:46;;;;;;;4.30;2.63;;;;;;;23.05;53.87;100477.38;5050484;28;20173;-63
2023/07/07 01:21:29;;;;;;;4.47;2.60;;;;;;;23.07;53.78;100479.84;5044653;28;20449;-63
2023/07/07 01:24:18;;;;;;;5.07;2.60;;;;;;;23.05;53.66;100483.16;5068665;28;21202;-62
2023/07/07 01:26:59;;;;;;;4.03;2.20;;;;;;;23.07;53.74;100482.72;5068669;28;20877;-62
2023/07/07 01:29:44;;;;;;;4.23;2.30;;;;;;;23.05;53.74;100477.38;5070157;28;20424;-63
2023/07/07 01:32:16;;;;;;;3.90;2.37;;;;;;;23.05;54.01;100479.44;5052142;28;20974;-62
2023/07/07 01:34:41;;;;;;;5.03;3.03;;;;;;;23.04;53.94;100478.63;5059035;28;20834;-62
2023/07/07 01:37:06;;;;;;;5.00;3.10;;;;;;;23.03;53.88;100476.97;5086696;28;20425;-62
2023/07/07 01:39:32;;;;;;;5.97;2.80;;;;;;;23.03;53.79;100474.06;5082473;28;20622;-62
2023/07/07 01:41:59;;;;;;;4.90;2.37;;;;;;;23.04;53.49;100483.56;5089441;28;20301;-63
2023/07/07 01:44:40;;;;;;;4.10;1.90;;;;;;;23.02;53.74;100481.06;5071847;28;20178;-62
2023/07/07 01:47:08;;;;;;;3.30;2.10;;;;;;;23.02;53.70;100478.19;5071827;28;20419;-62
2023/07/07 01:49:50;;;;;;;4.77;2.27;;;;;;;23.02;54.08;100481.06;5074002;28;20539;-63
2023/07/07 01:52:26;;;;;;;3.97;2.60;;;;;;;23.02;54.01;100472.44;5057995;28;20444;-62
2023/07/07 01:54:55;;;;;;;4.27;2.53;;;;;;;23.03;53.45;100482.72;5067747;28;20438;-62
2023/07/07 01:57:20;;;;;;;4.17;2.30;;;;;;;23.02;53.85;100483.94;5039393;28;20518;-62
2023/07/07 01:59:46;;;;;;;4.17;2.60;;;;;;;23.02;53.79;100480.25;5052486;28;20467;-63
2023/07/07 02:02:11;;;;;;;3.23;2.40;;;;;;;23.01;53.51;100479.44;5034491;28;20210;-62
2023/07/07 02:04:37;;;;;;;4.13;2.60;;;;;;;23.01;53.64;100475.72;5069788;28;20226;-63
2023/07/07 02:07:03;;;;;;;4.87;2.70;;;;;;;23.01;53.83;100488.06;5082781;28;20198;-62
2023/07/07 02:09:28;;;;;;;5.30;2.50;;;;;;;23.01;54.05;100484.34;5087031;28;20169;-63
2023/07/07 02:11:53;;;;;;;5.83;2.50;;;;;;;23.01;53.92;100487.22;5086098;28;20181;-62
2023/07/07 02:14:19;;;;;;;4.70;2.57;;;;;;;23.01;53.72;100475.72;5084031;28;20632;-62
2023/07/07 02:16:44;;;;;;;4.13;2.50;;;;;;;23.00;53.81;100480.66;5088118;28;20189;-62
2023/07/07 02:19:10;;;;;;;3.17;2.33;;;;;;;22.99;53.86;100479.03;5071601;28;20757;-63
2023/07/07 02:21:35;;;;;;;5.60;2.70;;;;;;;22.99;53.92;100490.53;5081137;28;20198;-63
2023/07/07 02:24:01;;;;;;;4.60;2.50;;;;;;;23.00;53.76;100488.47;5089287;28;20190;-63
2023/07/07 02:26:26;;;;;;;3.80;2.43;;;;;;;23.00;53.67;100491.34;5090051;28;20174;-63
2023/07/07 02:28:51;;;;;;;3.80;2.73;;;;;;;22.99;53.71;100496.31;5090088;28;20181;-63
2023/07/07 02:31:17;;;;;;;5.13;2.23;;;;;;;22.99;53.83;100483.94;5056083;28;20179;-63
2023/07/07 02:33:42;;;;;;;3.07;2.00;;;;;;;22.98;53.62;100488.88;5052049;28;20163;-63
2023/07/07 02:36:08;;;;;;;4.47;2.43;;;;;;;22.98;53.94;100494.63;5071428;28;20919;-63
2023/07/07 02:38:35;;;;;;;4.80;2.87;;;;;;;22.97;53.73;100495.88;5051287;28;20187;-62
2023/07/07 02:41:00;;;;;;;3.87;2.60;;;;;;;22.98;53.77;100494.63;5050360;28;20279;-63
2023/07/07 02:43:26;;;;;;;4.10;2.57;;;;;;;22.97;53.83;100501.63;5069801;28;20693;-63
2023/07/07 02:45:51;;;;;;;4.57;2.87;;;;;;;22.98;53.52;100491.75;5077869;28;20186;-62
2023/07/07 02:48:20;;;;;;;3.93;2.63;;;;;;;22.97;53.59;100495.06;5069345;28;20178;-62
2023/07/07 02:50:55;;;;;;;3.90;2.43;;;;;;;22.96;53.64;100499.97;5053203;28;20178;-63
2023/07/07 02:53:23;;;;;;;4.63;2.47;;;;;;;22.96;53.63;100497.09;5085229;28;20973;-62
2023/07/07 02:55:49;;;;;;;4.33;2.50;;;;;;;22.96;53.86;100502.03;5083005;28;20435;-63
2023/07/07 02:58:14;;;;;;;6.23;2.70;;;;;;;22.95;53.51;100503.25;5087953;28;20420;-63
2023/07/07 03:00:39;;;;;;;5.17;2.73;;;;;;;22.95;53.61;100500.38;5088682;28;20606;-63
2023/07/07 03:03:07;;;;;;;4.10;2.60;;;;;;;22.95;53.51;100506.16;5084119;28;20206;-63
2023/07/07 03:05:32;;;;;;;4.77;2.97;;;;;;;22.94;53.42;100496.69;5088434;28;20185;-63
2023/07/07 03:07:58;;;;;;;3.00;2.37;;;;;;;22.94;53.49;100504.50;5086823;28;20778;-63
2023/07/07 03:10:23;;;;;;;4.63;2.33;;;;;;;22.94;53.40;100511.09;5083487;28;20602;-63
2023/07/07 03:12:49;;;;;;;4.90;3.00;;;;;;;22.93;53.45;100512.31;5069844;28;20155;-63
2023/07/07 03:15:14;;;;;;;3.70;2.00;;;;;;;22.93;53.77;100502.84;5062949;28;20299;-62
2023/07/07 03:17:39;;;;;;;4.47;2.53;;;;;;;22.93;53.39;100502.84;5085571;28;20666;-63
2023/07/07 03:20:07;;;;;;;3.40;2.30;;;;;;;22.92;53.77;100504.91;5087497;28;20183;-63
2023/07/07 03:22:32;;;;;;;3.43;2.20;;;;;;;22.92;53.55;100498.34;5087823;28;20281;-63
2023/07/07 03:25:00;;;;;;;4.00;2.73;;;;;;;22.92;53.87;100507.78;5077124;28;20441;-62
2023/07/07 03:27:25;;;;;;;3.50;2.37;;;;;;;22.92;53.74;100512.72;5067581;28;20527;-62
2023/07/07 03:29:51;;;;;;;6.40;2.50;;;;;;;22.92;53.64;100507.78;5070451;28;20437;-63
2023/07/07 03:32:16;;;;;;;4.70;3.20;;;;;;;22.92;53.59;100510.66;5088624;28;20622;-63
2023/07/07 03:34:41;;;;;;;5.57;2.93;;;;;;;22.91;53.43;100511.91;5088705;28;20163;-63
2023/07/07 03:37:07;;;;;;;4.67;2.70;;;;;;;22.91;53.78;100506.13;5086785;28;20163;-62
2023/07/07 03:39:32;;;;;;;3.60;2.77;;;;;;;22.92;53.40;100512.72;5046930;28;20248;-63
2023/07/07 03:41:58;;;;;;;3.93;2.40;;;;;;;22.92;53.56;100519.28;5064477;28;20208;-63
2023/07/07 03:44:23;;;;;;;4.00;2.30;;;;;;;22.91;53.70;100516.81;5073124;28;20240;-63
2023/07/07 03:46:49;;;;;;;4.30;2.60;;;;;;;22.90;53.39;100516.00;5064969;28;20175;-63
2023/07/07 03:49:14;;;;;;;4.00;2.60;;;;;;;22.90;53.36;100516.00;5056257;28;20175;-63
2023/07/07 03:51:39;;;;;;;5.40;2.53;;;;;;;22.89;53.59;100520.13;5068046;28;20175;-63
2023/07/07 03:54:05;;;;;;;4.33;2.40;;;;;;;22.89;53.35;100514.38;5083826;28;20182;-63
2023/07/07 03:56:30;;;;;;;5.30;3.03;;;;;;;22.89;53.83;100514.38;5088186;28;20174;-63
2023/07/07 03:58:56;;;;;;;3.90;2.73;;;;;;;22.88;53.77;100512.69;5067386;28;20182;-63
2023/07/07 04:01:21;;;;;;;4.37;2.50;;;;;;;22.89;53.16;100519.28;5068032;28;20197;-63
2023/07/07 04:03:47;;;;;;;6.10;2.77;;;;;;;22.88;53.77;100518.44;5067591;28;20223;-63
2023/07/07 04:06:16;;;;;;;4.70;2.83;;;;;;;22.88;53.09;100515.56;5033169;28;20178;-63
2023/07/07 04:08:42;;;;;;;3.83;2.40;;;;;;;22.88;53.60;100521.34;5052999;28;20705;-62
2023/07/07 04:11:14;;;;;;;5.03;2.60;;;;;;;22.88;53.55;100514.75;5066993;28;20418;-63
2023/07/07 04:13:40;;;;;;;4.47;2.80;;;;;;;22.87;53.24;100522.56;5076618;28;20202;-62
2023/07/07 04:16:14;;;;;;;4.10;2.57;;;;;;;22.86;53.84;100515.16;5052576;28;20833;-63
2023/07/07 04:18:40;;;;;;;3.97;2.67;;;;;;;22.86;53.45;100526.69;5068650;28;20412;-62
2023/07/07 04:21:10;;;;;;;3.90;2.33;;;;;;;22.86;53.32;100520.91;5073030;28;20437;-63
2023/07/07 04:23:36;;;;;;;3.47;2.40;;;;;;;22.86;53.28;100517.22;5084098;28;20689;-63
2023/07/07 04:26:02;;;;;;;4.73;2.93;;;;;;;22.86;53.40;100515.16;5048362;28;20869;-63
2023/07/07 04:28:29;;;;;;;4.47;3.10;;;;;;;22.86;53.37;100520.91;5068176;28;20504;-62
2023/07/07 04:30:55;;;;;;;5.10;2.87;;;;;;;22.85;53.40;100507.75;5068626;28;20227;-63
2023/07/07 04:33:22;;;;;;;4.57;2.70;;;;;;;22.85;53.38;100519.28;5051757;28;20421;-62
2023/07/07 04:35:52;;;;;;;5.03;2.50;;;;;;;22.84;53.12;100514.75;5047935;28;20516;-63
2023/07/07 04:38:19;;;;;;;4.47;2.90;;;;;;;22.85;53.03;100521.31;5065578;28;20739;-63
2023/07/07 04:40:45;;;;;;;4.30;2.83;;;;;;;22.85;53.34;100518.44;5048303;28;20510;-62
2023/07/07 04:43:10;;;;;;;4.83;2.77;;;;;;;22.85;53.28;100525.03;5085176;28;20467;-63
2023/07/07 04:45:35;;;;;;;3.83;2.60;;;;;;;22.88;53.58;100524.22;5068210;28;20452;-63
2023/07/07 04:48:01;;;;;;;4.33;2.83;;;;;;;22.89;53.65;100531.66;5079758;28;20179;-63
2023/07/07 04:50:27;;;;;;;4.87;2.27;;;;;;;22.89;53.18;100537.41;5068257;28;20178;-63
2023/07/07 04:52:52;;;;;;;3.60;2.50;;;;;;;22.91;53.39;100534.94;5084878;28;20286;-63
2023/07/07 04:55:18;;;;;;;5.83;2.47;;;;;;;22.92;53.32;100539.44;5087038;28;20427;-62
2023/07/07 04:57:43;;;;;;;4.77;2.50;;;;;;;22.93;53.27;100537.41;5085989;28;20170;-62
2023/07/07 05:00:09;;;;;;;4.00;2.50;;;;;;;22.93;52.96;100534.53;5072699;28;20229;-63
2023/07/07 05:02:35;;;;;;;4.50;2.87;;;;;;;22.92;53.41;100533.69;5049976;28;20432;-62
2023/07/07 05:05:01;;;;;;;4.30;2.67;;;;;;;22.92;53.09;100532.88;5078342;28;20460;-63
2023/07/07 05:07:28;;;;;;;4.00;2.70;;;;;;;22.92;53.28;100536.56;5060418;28;20583;-62
2023/07/07 05:09:54;;;;;;;4.10;2.47;;;;;;;22.92;52.83;100535.75;5067228;28;20413;-63
2023/07/07 05:12:20;;;;;;;4.43;3.00;;;;;;;22.93;53.24;100537.41;5049652;28;20842;-63
2023/07/07 05:14:45;;;;;;;5.33;2.77;;;;;;;22.95;53.11;100546.47;5085074;28;20450;-63
2023/07/07 05:17:11;;;;;;;4.30;2.60;;;;;;;22.95;53.04;100544.41;5089382;28;20178;-62
2023/07/07 05:19:36;;;;;;;5.23;2.50;;;;;;;22.96;53.39;100548.94;5088623;28;20181;-63
2023/07/07 05:22:02;;;;;;;6.40;2.90;;;;;;;22.97;53.14;100546.91;5091162;28;20182;-63
2023/07/07 05:24:27;;;;;;;4.37;2.97;;;;;;;22.98;53.46;100539.91;5070786;28;20774;-63
2023/07/07 05:26:53;;;;;;;5.10;2.60;;;;;;;22.98;53.14;100540.72;5066642;28;20182;-63
2023/07/07 05:29:19;;;;;;;6.47;2.80;;;;;;;23.01;53.72;100550.59;5051789;28;20178;-63
2023/07/07 05:31:45;;;;;;;4.27;2.50;;;;;;;23.01;53.36;100542.78;5050715;28;21175;-63
2023/07/07 05:34:10;;;;;;;4.13;2.80;;;;;;;23.01;53.09;100550.59;5082454;28;20435;-63
2023/07/07 05:36:36;;;;;;;4.30;2.33;;;;;;;23.00;53.21;100543.19;5088856;28;20170;-63
2023/07/07 05:39:03;;;;;;;4.40;2.50;;;;;;;22.98;53.50;100540.72;5082986;28;20245;-63
2023/07/07 05:41:29;;;;;;;5.23;2.73;;;;;;;22.97;53.56;100536.19;5059520;28;20181;-63
2023/07/07 05:43:55;;;;;;;3.30;2.50;;;;;;;22.96;53.13;100548.09;5071369;28;20444;-63
2023/07/07 05:46:21;;;;;;;4.80;2.90;;;;;;;22.95;54.26;100550.16;5074578;28;20194;-62
2023/07/07 05:48:46;;;;;;;6.07;2.60;;;;;;;22.95;53.62;100555.09;5069621;28;20417;-63
2023/07/07 05:51:14;;;;;;;10.40;2.90;;;;;;;22.96;53.25;100557.56;5051530;28;20232;-62
2023/07/07 05:53:41;;;;;;;5.10;2.90;;;;;;;22.96;53.43;100557.56;5085727;28;20178;-62
2023/07/07 05:56:13;;;;;;;4.40;3.10;;;;;;;22.96;53.65;100548.09;5090319;28;20431;-62
2023/07/07 05:58:38;;;;;;;5.03;3.00;;;;;;;22.96;53.84;100560.47;5055442;28;20408;-63
2023/07/07 06:01:04;;;;;;;4.03;2.90;;;;;;;22.95;53.41;100560.84;5069497;28;20436;-62
2023/07/07 06:03:30;;;;;;;4.40;2.90;;;;;;;22.95;53.66;100560.84;5068811;28;20298;-62
2023/07/07 06:05:55;;;;;;;4.07;2.23;;;;;;;22.96;53.65;100569.09;5035581;28;20512;-63
2023/07/07 06:08:21;;;;;;;4.67;2.90;;;;;;;22.98;53.85;100566.63;5079214;28;20198;-63
2023/07/07 06:10:49;;;;;;;4.03;2.73;;;;;;;23.00;53.64;100567.06;5087066;28;20276;-63
2023/07/07 06:13:17;;;;;;;4.47;2.70;;;;;;;23.02;53.78;100573.22;5090204;28;20166;-63
2023/07/07 06:15:43;;;;;;;7.70;2.93;;;;;;;23.03;53.78;100574.06;5079131;28;20464;-62
2023/07/07 06:18:08;;;;;;;4.73;2.87;;;;;;;23.03;53.66;100577.75;5051519;28;21048;-62
2023/07/07 06:20:34;;;;;;;4.47;2.87;;;;;;;23.03;53.62;100572.00;5070392;28;20432;-63
2023/07/07 06:23:00;;;;;;;4.50;2.97;;;;;;;23.00;53.88;100581.47;5088173;28;20275;-62
2023/07/07 06:25:25;;;;;;;6.40;3.10;;;;;;;22.99;53.90;100582.69;5084043;28;20186;-62
2023/07/07 06:27:51;;;;;;;4.30;3.03;;;;;;;22.98;53.45;100583.09;5068606;28;20186;-62
2023/07/07 06:30:17;;;;;;;4.73;2.67;;;;;;;22.96;53.84;100586.38;5085865;28;20224;-62
2023/07/07 06:32:42;;;;;;;4.37;2.80;;;;;;;22.95;53.87;100595.41;5051814;28;20946;-63
2023/07/07 06:35:08;;;;;;;6.00;2.70;;;;;;;22.94;54.17;100588.84;5067989;28;20174;-63
2023/07/07 06:37:33;;;;;;;7.80;3.23;;;;;;;22.93;54.17;100587.16;5077525;28;20190;-62
2023/07/07 06:39:59;;;;;;;4.60;3.00;;;;;;;22.94;54.04;100585.97;5071857;28;20174;-62
2023/07/07 06:42:24;;;;;;;5.97;3.20;;;;;;;22.93;53.98;100590.03;5086919;28;20205;-62
2023/07/07 06:44:49;;;;;;;5.37;2.77;;;;;;;22.93;53.80;100589.25;5087662;28;20175;-62
2023/07/07 06:47:16;;;;;;;5.37;2.90;;;;;;;22.92;54.37;100591.28;5075392;28;20182;-62
2023/07/07 06:49:41;;;;;;;4.77;2.63;;;;;;;22.94;54.06;100596.66;5089031;28;20185;-62
2023/07/07 06:52:07;;;;;;;9.13;3.20;;;;;;;22.93;53.91;100590.03;5089176;28;20425;-63
2023/07/07 06:54:32;;;;;;;5.43;2.87;;;;;;;22.95;54.03;100592.53;5086516;28;20888;-62
2023/07/07 06:56:58;;;;;;;4.77;2.90;;;;;;;22.96;54.29;100592.13;5074613;28;20182;-63
2023/07/07 06:59:23;;;;;;;5.30;3.30;;;;;;;22.96;54.38;100595.00;5079176;28;20191;-62
2023/07/07 07:01:48;;;;;;;6.03;3.30;;;;;;;22.97;53.92;100601.59;5089702;28;20725;-62
2023/07/07 07:04:14;;;;;;;3.90;2.60;;;;;;;22.97;54.45;100590.09;5088707;28;20283;-63
2023/07/07 07:06:43;;;;;;;6.07;2.93;;;;;;;22.97;54.14;100596.66;5071450;28;20625;-62
2023/07/07 07:09:08;;;;;;;4.83;2.83;;;;;;;22.96;54.15;100588.41;5051817;28;20232;-62
2023/07/07 07:11:34;;;;;;;8.93;2.93;;;;;;;22.96;54.58;100591.28;5051708;28;20743;-62
2023/07/07 07:13:59;;;;;;;4.90;3.13;;;;;;;22.96;54.26;100585.53;5053745;28;20253;-62
2023/07/07 07:16:25;;;;;;;4.23;3.00;;;;;;;22.95;54.45;100587.59;5069582;28;20190;-62
2023/07/07 07:18:50;;;;;;;5.10;3.23;;;;;;;22.94;54.11;100591.72;5067705;28;20171;-62
2023/07/07 07:21:16;;;;;;;4.50;3.60;;;;;;;22.94;54.07;100590.88;5077538;28;20181;-62
2023/07/07 07:23:41;;;;;;;5.37;3.20;;;;;;;22.93;53.96;100589.25;5082309;28;20218;-62
2023/07/07 07:26:07;;;;;;;5.33;2.83;;;;;;;22.92;53.94;100588.41;5067205;28;20178;-62
2023/07/07 07:28:32;;;;;;;4.87;2.40;;;;;;;22.92;54.05;100581.84;5066689;28;20175;-63
2023/07/07 07:30:58;;;;;;;4.37;2.60;;;;;;;22.92;54.11;100581.84;5066002;28;20178;-63
2023/07/07 07:33:23;;;;;;;5.90;3.13;;;;;;;22.91;54.07;100575.25;5052076;28;20190;-62
2023/07/07 07:35:49;;;;;;;4.70;3.00;;;;;;;22.91;53.76;100580.16;5069043;28;20210;-62
2023/07/07 07:38:15;;;;;;;4.17;2.70;;;;;;;22.90;54.06;100576.47;5062177;28;20179;-62
2023/07/07 07:40:41;;;;;;;6.00;3.20;;;;;;;22.92;53.87;100573.19;5088074;28;20651;-62
2023/07/07 07:43:06;;;;;;;5.00;2.93;;;;;;;22.91;54.10;100578.13;5083068;28;20464;-62
2023/07/07 07:45:32;;;;;;;4.50;2.80;;;;;;;22.92;54.16;100571.13;5050712;28;20160;-62
2023/07/07 07:47:57;;;;;;;4.50;2.77;;;;;;;22.91;53.58;100575.25;5084850;28;20223;-62
2023/07/07 07:50:22;;;;;;;6.50;2.63;;;;;;;22.91;54.12;100575.25;5072059;28;20179;-62
2023/07/07 07:52:48;;;;;;;5.20;3.57;;;;;;;22.91;54.08;100575.25;5061647;28;20214;-62
2023/07/07 07:55:16;;;;;;;6.43;3.30;;;;;;;22.91;53.73;100571.53;5080802;28;20191;-62
2023/07/07 07:57:42;;;;;;;5.33;3.03;;;;;;;22.90;53.65;100570.72;5067646;28;20253;-62
2023/07/07 08:00:08;;;;;;;5.17;2.93;;;;;;;22.91;53.99;100571.53;5067148;28;20421;-63
2023/07/07 08:02:34;;;;;;;4.60;2.80;;;;;;;22.90;53.95;100567.84;5048560;28;20461;-62
2023/07/07 08:05:00;;;;;;;4.77;3.07;;;;;;;22.90;54.09;100561.25;5067364;28;20538;-62
2023/07/07 08:07:25;;;;;;;4.50;2.83;;;;;;;22.91;53.71;100568.66;5059283;28;20459;-62
2023/07/07 08:09:51;;;;;;;6.03;3.37;;;;;;;22.90;53.99;100573.59;5068183;28;20247;-62
2023/07/07 08:12:16;;;;;;;4.83;2.80;;;;;;;22.90;53.89;100559.19;5066917;28;20185;-62
2023/07/07 08:14:42;;;;;;;5.93;3.23;;;;;;;22.90;53.88;100556.31;5085568;28;20194;-63
2023/07/07 08:17:10;;;;;;;5.80;3.13;;;;;;;22.91;53.70;100552.22;5086121;28;20178;-62
2023/07/07 08:19:36;;;;;;;4.13;2.20;;;;;;;22.92;53.89;100555.94;5041279;28;20198;-62
2023/07/07 08:22:07;;;;;;;6.70;3.10;;;;;;;22.91;53.81;100546.44;5032706;28;20425;-62
2023/07/07 08:24:37;;;;;;;5.00;3.10;;;;;;;22.91;54.06;100555.09;5048760;28;20556;-62
2023/07/07 08:27:03;;;;;;;4.77;3.00;;;;;;;22.91;53.97;100555.09;5048341;28;20432;-63
2023/07/07 08:29:28;;;;;;;5.17;3.27;;;;;;;22.92;53.73;100559.59;5065823;28;20413;-63
2023/07/07 08:31:54;;;;;;;4.40;2.47;;;;;;;22.93;54.00;100561.25;5068121;28;20519;-62
2023/07/07 08:34:19;;;;;;;5.30;3.23;;;;;;;22.93;53.88;100567.00;5078433;28;20231;-62
2023/07/07 08:36:45;;;;;;;6.20;3.00;;;;;;;22.93;53.68;100561.25;5065946;28;20825;-62
2023/07/07 08:39:16;;;;;;;4.83;2.90;;;;;;;22.93;53.89;100560.44;5065665;28;20208;-62
2023/07/07 08:41:52;;;;;;;6.00;3.37;;;;;;;22.94;53.88;100557.16;5069589;28;20204;-63
2023/07/07 08:44:20;;;;;;;4.80;3.00;;;;;;;22.94;53.87;100562.94;5037724;28;21282;-62
2023/07/07 08:47:11;;;;;;;7.80;3.03;;;;;;;22.94;53.62;100567.84;5067627;28;20405;-62
2023/07/07 08:49:57;;;;;;;4.50;2.80;;;;;;;22.93;53.87;100555.50;5063157;28;20445;-62
2023/07/07 08:52:43;;;;;;;4.50;3.20;;;;;;;22.95;53.08;100563.72;5046954;28;20421;-62
2023/07/07 08:55:36;;;;;;;4.90;3.10;;;;;;;22.95;53.26;100560.84;5074781;28;20412;-62
2023/07/07 08:58:26;;;;;;;5.97;3.40;;;;;;;22.95;53.49;100564.56;5083428;28;20507;-62
2023/07/07 09:01:36;;;;;;;6.07;3.27;;;;;;;22.94;53.68;100560.06;5076295;28;20407;-62
2023/07/07 09:04:22;;;;;;;5.43;3.10;;;;;;;22.95;53.57;100553.06;5006310;28;20594;-62
2023/07/07 09:06:52;;;;;;;4.80;2.93;;;;;;;22.94;53.88;100551.41;5048064;28;20483;-62
2023/07/07 09:09:32;;;;;;;5.90;3.33;;;;;;;22.95;53.57;100557.97;5069078;28;20544;-62
2023/07/07 09:12:16;;;;;;;6.50;3.00;;;;;;;22.95;53.72;100549.34;5047148;28;20425;-62
2023/07/07 09:14:41;;;;;;;5.77;2.97;;;;;;;22.96;53.81;100546.06;5064515;28;20428;-63
2023/07/07 09:17:24;;;;;;;4.43;3.20;;;;;;;22.96;54.31;100550.97;5064108;28;20394;-63
2023/07/07 09:19:49;;;;;;;7.10;3.70;;;;;;;22.95;54.49;100546.47;5067317;28;20228;-63
2023/07/07 09:22:19;;;;;;;4.67;3.10;;;;;;;22.95;54.08;100541.53;5048853;28;20421;-63
2023/07/07 09:24:48;;;;;;;3.80;2.90;;;;;;;22.95;54.06;100541.53;5058025;28;20187;-62
2023/07/07 09:27:21;;;;;;;6.33;2.97;;;;;;;22.96;54.25;100536.59;5064887;28;20519;-62
2023/07/07 09:29:46;;;;;;;10.30;2.97;;;;;;;22.95;54.07;100538.66;5063674;28;20581;-63
2023/07/07 09:32:12;;;;;;;6.47;3.47;;;;;;;22.95;54.15;100535.78;5082735;28;20444;-62
2023/07/07 09:34:37;;;;;;;4.10;2.70;;;;;;;22.97;54.52;100539.06;5068409;28;20177;-62
2023/07/07 09:37:25;;;;;;;4.90;2.97;;;;;;;22.97;54.19;100539.06;5047019;28;20579;-62
2023/07/07 09:39:54;;;;;;;4.70;3.00;;;;;;;22.97;54.12;100536.19;5058564;28;20265;-62
2023/07/07 09:42:39;;;;;;;8.37;3.50;;;;;;;22.96;54.38;100528.78;5066568;28;20463;-62
2023/07/07 09:45:25;;;;;;;4.13;2.60;;;;;;;22.99;54.66;100524.25;5063929;28;20460;-62
2023/07/07 09:48:36;;;;;;;5.43;3.30;;;;;;;22.99;54.64;100525.09;5070736;28;20431;-62
2023/07/07 09:51:11;;;;;;;8.67;3.20;;;;;;;22.99;54.49;100522.22;5074875;28;20458;-62
2023/07/07 09:53:37;;;;;;;5.07;3.13;;;;;;;22.99;54.75;100519.34;5051329;28;20467;-62
2023/07/07 09:56:02;;;;;;;5.67;3.30;;;;;;;23.00;54.90;100526.75;5056892;28;20448;-63
2023/07/07 09:58:33;;;;;;;5.40;3.60;;;;;;;23.01;54.88;100525.50;5048113;28;20185;-62
2023/07/07 10:01:00;;;;;;;5.10;3.30;;;;;;;23.02;54.65;100520.59;5061257;28;20646;-62
2023/07/07 10:03:35;;;;;;;6.07;3.13;;;;;;;23.01;54.90;100519.75;5047487;28;20464;-62
2023/07/07 10:06:03;;;;;;;6.70;2.80;;;;;;;23.02;55.13;100520.59;5061915;28;20437;-62
2023/07/07 10:08:29;;;;;;;7.00;3.60;;;;;;;23.02;54.78;100514.81;5031187;28;20421;-62
2023/07/07 10:11:16;;;;;;;5.43;3.70;;;;;;;23.01;54.98;100511.09;5054687;28;21280;-62
2023/07/07 10:13:42;;;;;;;5.30;3.00;;;;;;;23.01;54.85;100510.28;5065311;28;20199;-62
2023/07/07 10:16:07;;;;;;;6.40;3.57;;;;;;;23.02;54.95;100509.88;5067182;28;20433;-62
2023/07/07 10:18:33;;;;;;;6.50;3.50;;;;;;;23.03;54.88;100507.81;5049983;28;20542;-62
2023/07/07 10:21:02;;;;;;;7.20;3.37;;;;;;;23.03;54.54;100504.94;5057274;28;20651;-63
2023/07/07 10:23:28;;;;;;;6.83;3.13;;;;;;;23.03;54.78;100505.75;5046186;28;20210;-62
2023/07/07 10:25:53;;;;;;;8.13;3.90;;;;;;;23.04;54.86;100510.31;5045682;28;20434;-62
2023/07/07 10:28:19;;;;;;;6.43;3.60;;;;;;;23.04;55.07;100510.31;5049512;28;20419;-62
2023/07/07 10:30:45;;;;;;;6.90;4.17;;;;;;;23.04;55.36;100509.47;5066071;28;20188;-62
2023/07/07 10:33:15;;;;;;;6.33;3.30;;;;;;;23.05;54.96;100506.19;5065581;28;20179;-62
2023/07/07 10:35:40;;;;;;;4.67;3.17;;;;;;;23.05;55.40;100503.31;5068142;28;20191;-63
2023/07/07 10:38:07;;;;;;;4.83;3.33;;;;;;;23.06;55.39;100507.84;5053937;28;20449;-62
2023/07/07 10:40:33;;;;;;;4.60;3.17;;;;;;;23.07;54.83;100505.75;5061874;28;20731;-62
2023/07/07 10:42:58;;;;;;;5.27;3.33;;;;;;;23.07;55.00;100500.84;5053862;28;20496;-63
2023/07/07 10:45:24;;;;;;;6.30;3.47;;;;;;;23.07;55.11;100500.84;5060161;28;20267;-62
2023/07/07 10:47:49;;;;;;;5.77;3.20;;;;;;;23.08;54.91;100493.03;5055122;28;20678;-62
2023/07/07 10:50:20;;;;;;;6.60;4.43;;;;;;;23.09;55.59;100488.91;5049103;28;20190;-63
2023/07/07 10:53:27;;;;;;;6.70;4.07;;;;;;;23.09;55.33;100486.03;5058036;28;20536;-62
2023/07/07 10:56:20;;;;;;;5.73;3.70;;;;;;;23.10;55.61;100485.63;5043002;28;20486;-63
2023/07/07 10:59:13;;;;;;;7.87;3.63;;;;;;;23.11;55.08;100489.31;5059838;28;20905;-62
2023/07/07 11:02:16;;;;;;;9.00;4.00;;;;;;;23.11;55.70;100481.50;5054415;28;20484;-62
2023/07/07 11:04:59;;;;;;;4.67;2.90;;;;;;;23.11;55.30;100480.69;5056578;28;20504;-62
2023/07/07 11:07:28;;;;;;;5.27;3.67;;;;;;;23.12;55.52;100482.31;5051118;28;20960;-62
2023/07/07 11:10:10;;;;;;;5.70;3.93;;;;;;;23.13;55.33;100489.75;5070687;28;20434;-62
2023/07/07 11:12:55;;;;;;;6.40;3.73;;;;;;;23.12;55.56;100483.16;5068852;28;20425;-63
2023/07/07 11:15:45;;;;;;;6.33;3.97;;;;;;;23.11;55.14;100475.75;5079216;28;20506;-63
2023/07/07 11:18:16;;;;;;;5.37;3.60;;;;;;;23.12;55.41;100477.41;5053355;28;20417;-62
2023/07/07 11:21:00;;;;;;;6.90;4.20;;;;;;;23.15;55.03;100478.63;5078683;28;20413;-62
2023/07/07 11:24:07;;;;;;;6.60;4.20;;;;;;;23.15;55.26;100465.06;5082630;28;20459;-63
2023/07/07 11:26:47;;;;;;;6.80;3.60;;;;;;;23.16;55.24;100471.63;5081691;28;21167;-62
2023/07/07 11:30:03;;;;;;;6.37;3.70;;;;;;;23.16;54.82;100455.19;5074060;28;20943;-62
2023/07/07 11:32:40;;;;;;;7.90;4.30;;;;;;;23.16;54.95;100471.63;5003309;28;20435;-63
2023/07/07 11:35:11;;;;;;;5.93;4.07;;;;;;;23.17;54.95;100462.59;5046934;28;20920;-63